sensor_id;sensor_type;location;lat;lon;timestamp;pressure;altitude;pressure_sealevel;temperature;humidity
28428;BME280;15662;49.128;8.520;2022-10-16T00:00:10;100228.44;;;21.84;61.37
28428;BME280;15662;49.128;8.520;2022-10-16T00:02:38;100224.59;;;21.76;61.51
28428;BME280;15662;49.128;8.520;2022-10-16T00:05:11;100226.22;;;21.78;61.66
28428;BME280;15662;49.128;8.520;2022-10-16T00:07:43;100236.38;;;21.75;61.85
28428;BME280;15662;49.128;8.520;2022-10-16T00:10:17;100243.72;;;21.73;61.62
28428;BME280;15662;49.128;8.520;2022-10-16T00:12:54;100235.97;;;21.68;61.91
28428;BME280;15662;49.128;8.520;2022-10-16T00:15:25;100224.91;;;21.47;61.91
28428;BME280;15662;49.128;8.520;2022-10-16T00:17:54;100236.31;;;21.63;62.08
28428;BME280;15662;49.128;8.520;2022-10-16T00:20:42;100231.53;;;21.67;61.93
28428;BME280;15662;49.128;8.520;2022-10-16T00:23:11;100221.72;;;21.66;61.84
28428;BME280;15662;49.128;8.520;2022-10-16T00:25:41;100223.59;;;21.77;61.91
28428;BME280;15662;49.128;8.520;2022-10-16T00:28:09;100215.84;;;21.72;61.99
28428;BME280;15662;49.128;8.520;2022-10-16T00:30:44;100207.03;;;21.70;61.85
28428;BME280;15662;49.128;8.520;2022-10-16T00:33:21;100197.09;;;21.71;61.93
28428;BME280;15662;49.128;8.520;2022-10-16T00:35:53;100221.78;;;21.77;61.99
28428;BME280;15662;49.128;8.520;2022-10-16T00:38:23;100208.13;;;21.68;61.89
28428;BME280;15662;49.128;8.520;2022-10-16T00:40:54;100228.91;;;21.78;61.87
28428;BME280;15662;49.128;8.520;2022-10-16T00:43:48;100224.25;;;21.80;61.71
28428;BME280;15662;49.128;8.520;2022-10-16T00:46:37;100216.75;;;21.73;62.10
28428;BME280;15662;49.128;8.520;2022-10-16T00:49:15;100232.97;;;21.84;61.92
28428;BME280;15662;49.128;8.520;2022-10-16T00:51:50;100216.28;;;21.79;61.76
28428;BME280;15662;49.128;8.520;2022-10-16T00:54:39;100220.69;;;21.80;61.88
28428;BME280;15662;49.128;8.520;2022-10-16T00:57:09;100211.09;;;21.76;61.99
28428;BME280;15662;49.128;8.520;2022-10-16T00:59:42;100206.81;;;21.73;61.76
28428;BME280;15662;49.128;8.520;2022-10-16T01:21:08;100254.88;;;21.92;61.81
28428;BME280;15662;49.128;8.520;2022-10-16T01:24:11;100256.59;;;21.93;61.73
28428;BME280;15662;49.128;8.520;2022-10-16T01:27:21;100263.19;;;21.89;61.75
28428;BME280;15662;49.128;8.520;2022-10-16T01:30:49;100250.03;;;21.84;61.83
28428;BME280;15662;49.128;8.520;2022-10-16T01:33:24;100213.41;;;21.69;61.69
28428;BME280;15662;49.128;8.520;2022-10-16T01:36:21;100248.53;;;21.80;61.82
28428;BME280;15662;49.128;8.520;2022-10-16T01:39:10;100238.19;;;21.74;61.97
28428;BME280;15662;49.128;8.520;2022-10-16T01:41:47;100233.66;;;21.75;61.81
28428;BME280;15662;49.128;8.520;2022-10-16T01:44:23;100248.00;;;21.75;61.71
28428;BME280;15662;49.128;8.520;2022-10-16T01:46:54;100228.09;;;21.65;62.00
28428;BME280;15662;49.128;8.520;2022-10-16T01:49:30;100236.25;;;21.76;61.75
28428;BME280;15662;49.128;8.520;2022-10-16T01:52:08;100229.34;;;21.72;61.63
28428;BME280;15662;49.128;8.520;2022-10-16T01:54:40;100244.31;;;21.76;61.67
28428;BME280;15662;49.128;8.520;2022-10-16T01:57:16;100237.09;;;21.77;61.78
28428;BME280;15662;49.128;8.520;2022-10-16T01:59:58;100245.84;;;21.80;61.56
28428;BME280;15662;49.128;8.520;2022-10-16T02:02:42;100224.84;;;21.73;61.67
28428;BME280;15662;49.128;8.520;2022-10-16T02:07:59;100228.59;;;21.70;61.68
28428;BME280;15662;49.128;8.520;2022-10-16T02:10:35;100247.66;;;21.80;61.75
28428;BME280;15662;49.128;8.520;2022-10-16T02:15:47;100243.25;;;21.79;61.80
28428;BME280;15662;49.128;8.520;2022-10-16T02:18:16;100250.50;;;21.78;61.63
28428;BME280;15662;49.128;8.520;2022-10-16T02:21:25;100248.66;;;21.79;61.53
28428;BME280;15662;49.128;8.520;2022-10-16T02:24:31;100248.34;;;21.71;61.61
28428;BME280;15662;49.128;8.520;2022-10-16T02:32:51;100244.41;;;21.51;61.56
28428;BME280;15662;49.128;8.520;2022-10-16T02:35:21;100245.19;;;21.53;61.67
28428;BME280;15662;49.128;8.520;2022-10-16T02:38:12;100256.84;;;21.53;61.76
28428;BME280;15662;49.128;8.520;2022-10-16T02:40:42;100255.09;;;21.52;61.71
28428;BME280;15662;49.128;8.520;2022-10-16T02:43:14;100258.75;;;21.51;61.89
28428;BME280;15662;49.128;8.520;2022-10-16T02:45:42;100264.16;;;21.51;61.62
28428;BME280;15662;49.128;8.520;2022-10-16T02:48:11;100271.19;;;21.54;61.78
28428;BME280;15662;49.128;8.520;2022-10-16T02:50:42;100270.66;;;21.49;61.94
28428;BME280;15662;49.128;8.520;2022-10-16T02:53:10;100269.03;;;21.46;61.57
28428;BME280;15662;49.128;8.520;2022-10-16T02:55:40;100273.69;;;21.44;61.76
28428;BME280;15662;49.128;8.520;2022-10-16T02:58:09;100273.03;;;21.41;61.73
28428;BME280;15662;49.128;8.520;2022-10-16T03:00:37;100278.63;;;21.37;61.90
28428;BME280;15662;49.128;8.520;2022-10-16T03:03:05;100279.28;;;21.41;62.02
28428;BME280;15662;49.128;8.520;2022-10-16T03:05:34;100281.00;;;21.42;61.90
28428;BME280;15662;49.128;8.520;2022-10-16T03:08:02;100260.13;;;21.33;62.00
28428;BME280;15662;49.128;8.520;2022-10-16T03:10:30;100283.06;;;21.38;62.22
28428;BME280;15662;49.128;8.520;2022-10-16T03:12:58;100275.31;;;21.34;61.94
28428;BME280;15662;49.128;8.520;2022-10-16T03:15:26;100295.34;;;21.43;62.18
28428;BME280;15662;49.128;8.520;2022-10-16T03:17:58;100282.84;;;21.42;62.02
28428;BME280;15662;49.128;8.520;2022-10-16T03:20:26;100284.34;;;21.46;62.26
28428;BME280;15662;49.128;8.520;2022-10-16T03:22:54;100281.53;;;21.47;62.35
28428;BME280;15662;49.128;8.520;2022-10-16T03:25:23;100280.56;;;21.48;62.20
28428;BME280;15662;49.128;8.520;2022-10-16T03:27:51;100281.66;;;21.46;62.26
28428;BME280;15662;49.128;8.520;2022-10-16T03:30:19;100274.53;;;21.45;62.30
28428;BME280;15662;49.128;8.520;2022-10-16T03:32:49;100277.78;;;21.37;62.22
28428;BME280;15662;49.128;8.520;2022-10-16T03:35:23;100265.38;;;21.34;62.57
28428;BME280;15662;49.128;8.520;2022-10-16T03:37:51;100271.66;;;21.35;62.49
28428;BME280;15662;49.128;8.520;2022-10-16T03:40:20;100254.03;;;21.29;62.46
28428;BME280;15662;49.128;8.520;2022-10-16T03:42:48;100261.84;;;21.34;62.60
28428;BME280;15662;49.128;8.520;2022-10-16T03:45:16;100279.84;;;21.33;62.72
28428;BME280;15662;49.128;8.520;2022-10-16T03:47:44;100261.59;;;21.24;62.47
28428;BME280;15662;49.128;8.520;2022-10-16T03:50:12;100275.63;;;21.29;62.54
28428;BME280;15662;49.128;8.520;2022-10-16T03:52:40;100276.47;;;21.30;62.56
28428;BME280;15662;49.128;8.520;2022-10-16T03:55:08;100269.28;;;21.30;62.72
28428;BME280;15662;49.128;8.520;2022-10-16T03:57:36;100274.97;;;21.26;62.68
28428;BME280;15662;49.128;8.520;2022-10-16T04:00:04;100278.41;;;21.28;62.56
28428;BME280;15662;49.128;8.520;2022-10-16T04:02:38;100272.91;;;21.29;62.64
28428;BME280;15662;49.128;8.520;2022-10-16T04:05:11;100277.53;;;21.27;62.60
28428;BME280;15662;49.128;8.520;2022-10-16T04:07:41;100272.47;;;21.23;62.76
28428;BME280;15662;49.128;8.520;2022-10-16T04:10:10;100293.41;;;21.32;62.65
28428;BME280;15662;49.128;8.520;2022-10-16T04:12:38;100270.66;;;21.23;62.77
28428;BME280;15662;49.128;8.520;2022-10-16T04:15:07;100275.53;;;21.31;62.83
28428;BME280;15662;49.128;8.520;2022-10-16T04:17:37;100286.97;;;21.34;62.63
28428;BME280;15662;49.128;8.520;2022-10-16T04:20:07;100287.81;;;21.35;62.69
28428;BME280;15662;49.128;8.520;2022-10-16T04:22:38;100295.06;;;21.34;62.74
28428;BME280;15662;49.128;8.520;2022-10-16T04:25:07;100300.44;;;21.34;62.69
28428;BME280;15662;49.128;8.520;2022-10-16T04:27:35;100289.53;;;21.36;62.64
28428;BME280;15662;49.128;8.520;2022-10-16T04:30:06;100290.94;;;21.29;62.71
28428;BME280;15662;49.128;8.520;2022-10-16T04:32:34;100307.66;;;21.34;62.57
28428;BME280;15662;49.128;8.520;2022-10-16T04:35:02;100316.28;;;21.39;62.66
28428;BME280;15662;49.128;8.520;2022-10-16T04:37:30;100312.94;;;21.35;62.85
28428;BME280;15662;49.128;8.520;2022-10-16T04:40:00;100318.00;;;21.40;62.61
28428;BME280;15662;49.128;8.520;2022-10-16T04:42:27;100313.34;;;21.42;62.72
28428;BME280;15662;49.128;8.520;2022-10-16T04:44:55;100305.84;;;21.34;62.81
28428;BME280;15662;49.128;8.520;2022-10-16T04:47:23;100316.16;;;21.41;62.46
28428;BME280;15662;49.128;8.520;2022-10-16T04:49:52;100321.44;;;21.42;62.66
28428;BME280;15662;49.128;8.520;2022-10-16T04:52:20;100326.84;;;21.42;62.55
28428;BME280;15662;49.128;8.520;2022-10-16T04:54:49;100304.66;;;21.38;62.64
28428;BME280;15662;49.128;8.520;2022-10-16T04:57:18;100314.22;;;21.43;62.72
28428;BME280;15662;49.128;8.520;2022-10-16T04:59:46;100307.09;;;21.42;62.74
28428;BME280;15662;49.128;8.520;2022-10-16T05:02:14;100303.00;;;21.36;62.86
28428;BME280;15662;49.128;8.520;2022-10-16T05:04:42;100308.16;;;21.26;62.68
28428;BME280;15662;49.128;8.520;2022-10-16T05:07:10;100307.97;;;21.29;62.70
28428;BME280;15662;49.128;8.520;2022-10-16T05:09:38;100306.13;;;21.30;63.06
28428;BME280;15662;49.128;8.520;2022-10-16T05:12:06;100300.19;;;21.25;62.77
28428;BME280;15662;49.128;8.520;2022-10-16T05:14:34;100307.19;;;21.27;63.22
28428;BME280;15662;49.128;8.520;2022-10-16T05:17:02;100316.69;;;21.20;62.95
28428;BME280;15662;49.128;8.520;2022-10-16T05:19:30;100321.00;;;21.23;63.20
28428;BME280;15662;49.128;8.520;2022-10-16T05:21:59;100320.25;;;21.21;62.98
28428;BME280;15662;49.128;8.520;2022-10-16T05:24:27;100326.38;;;21.23;62.94
28428;BME280;15662;49.128;8.520;2022-10-16T05:26:55;100315.50;;;21.11;63.16
28428;BME280;15662;49.128;8.520;2022-10-16T05:29:25;100328.00;;;21.25;63.31
28428;BME280;15662;49.128;8.520;2022-10-16T05:31:53;100331.47;;;21.27;62.98
28428;BME280;15662;49.128;8.520;2022-10-16T05:34:21;100326.06;;;21.27;62.92
28428;BME280;15662;49.128;8.520;2022-10-16T05:36:49;100318.75;;;21.17;62.88
28428;BME280;15662;49.128;8.520;2022-10-16T05:39:20;100336.09;;;21.25;62.72
28428;BME280;15662;49.128;8.520;2022-10-16T05:41:49;100323.16;;;21.18;62.94
28428;BME280;15662;49.128;8.520;2022-10-16T05:44:18;100337.81;;;21.26;62.84
28428;BME280;15662;49.128;8.520;2022-10-16T05:46:46;100339.88;;;21.23;62.92
28428;BME280;15662;49.128;8.520;2022-10-16T05:49:15;100344.94;;;21.27;62.94
28428;BME280;15662;49.128;8.520;2022-10-16T05:51:45;100342.34;;;21.26;63.08
28428;BME280;15662;49.128;8.520;2022-10-16T05:54:13;100336.31;;;21.22;63.11
28428;BME280;15662;49.128;8.520;2022-10-16T05:56:41;100334.81;;;21.18;62.96
28428;BME280;15662;49.128;8.520;2022-10-16T05:59:09;100346.88;;;21.25;63.02
28428;BME280;15662;49.128;8.520;2022-10-16T06:01:37;100329.97;;;21.23;63.08
28428;BME280;15662;49.128;8.520;2022-10-16T06:04:05;100326.06;;;21.27;62.88
28428;BME280;15662;49.128;8.520;2022-10-16T06:06:33;100330.72;;;21.25;62.82
28428;BME280;15662;49.128;8.520;2022-10-16T06:09:05;100322.22;;;21.19;62.94
28428;BME280;15662;49.128;8.520;2022-10-16T06:11:33;100323.47;;;21.13;62.79
28428;BME280;15662;49.128;8.520;2022-10-16T06:14:02;100348.06;;;21.21;62.93
28428;BME280;15662;49.128;8.520;2022-10-16T06:16:36;100346.66;;;21.16;62.70
28428;BME280;15662;49.128;8.520;2022-10-16T06:19:07;100371.59;;;21.19;62.75
28428;BME280;15662;49.128;8.520;2022-10-16T06:21:35;100358.75;;;21.10;62.84
28428;BME280;15662;49.128;8.520;2022-10-16T06:24:06;100375.13;;;21.20;62.99
28428;BME280;15662;49.128;8.520;2022-10-16T06:26:37;100351.19;;;21.15;62.90
28428;BME280;15662;49.128;8.520;2022-10-16T06:29:08;100344.94;;;21.15;62.95
28428;BME280;15662;49.128;8.520;2022-10-16T06:31:38;100352.06;;;21.16;63.04
28428;BME280;15662;49.128;8.520;2022-10-16T06:34:10;100345.94;;;21.13;62.98
28428;BME280;15662;49.128;8.520;2022-10-16T06:36:39;100355.19;;;21.09;63.03
28428;BME280;15662;49.128;8.520;2022-10-16T06:39:08;100379.75;;;21.18;62.89
28428;BME280;15662;49.128;8.520;2022-10-16T06:41:37;100362.84;;;21.16;63.00
28428;BME280;15662;49.128;8.520;2022-10-16T06:44:16;100365.97;;;21.22;62.95
28428;BME280;15662;49.128;8.520;2022-10-16T06:46:45;100364.03;;;21.24;62.95
28428;BME280;15662;49.128;8.520;2022-10-16T06:49:15;100364.78;;;21.26;63.05
28428;BME280;15662;49.128;8.520;2022-10-16T06:51:49;100354.44;;;21.20;62.91
28428;BME280;15662;49.128;8.520;2022-10-16T06:54:17;100367.59;;;21.25;63.07
28428;BME280;15662;49.128;8.520;2022-10-16T06:56:47;100367.72;;;21.23;63.08
28428;BME280;15662;49.128;8.520;2022-10-16T06:59:15;100372.97;;;21.25;62.96
28428;BME280;15662;49.128;8.520;2022-10-16T07:01:43;100372.31;;;21.21;63.28
28428;BME280;15662;49.128;8.520;2022-10-16T07:04:14;100385.38;;;21.27;63.24
28428;BME280;15662;49.128;8.520;2022-10-16T07:06:45;100379.22;;;21.25;63.20
28428;BME280;15662;49.128;8.520;2022-10-16T07:09:15;100379.13;;;21.27;63.21
28428;BME280;15662;49.128;8.520;2022-10-16T07:11:43;100385.28;;;21.29;63.25
28428;BME280;15662;49.128;8.520;2022-10-16T07:14:18;100384.22;;;21.31;63.05
28428;BME280;15662;49.128;8.520;2022-10-16T07:16:50;100386.16;;;21.29;63.10
28428;BME280;15662;49.128;8.520;2022-10-16T07:19:18;100404.41;;;21.38;63.18
28428;BME280;15662;49.128;8.520;2022-10-16T07:21:47;100403.09;;;21.44;63.25
28428;BME280;15662;49.128;8.520;2022-10-16T07:24:16;100420.25;;;21.56;63.44
28428;BME280;15662;49.128;8.520;2022-10-16T07:26:45;100417.09;;;21.62;63.07
28428;BME280;15662;49.128;8.520;2022-10-16T07:29:17;100423.69;;;21.71;62.94
28428;BME280;15662;49.128;8.520;2022-10-16T07:31:48;100432.22;;;21.77;63.06
28428;BME280;15662;49.128;8.520;2022-10-16T07:34:18;100428.56;;;21.78;62.92
28428;BME280;15662;49.128;8.520;2022-10-16T07:36:49;100432.53;;;21.85;63.03
28428;BME280;15662;49.128;8.520;2022-10-16T07:39:18;100450.34;;;21.88;62.85
28428;BME280;15662;49.128;8.520;2022-10-16T07:41:46;100438.44;;;21.90;62.85
28428;BME280;15662;49.128;8.520;2022-10-16T07:44:18;100431.47;;;21.88;62.70
28428;BME280;15662;49.128;8.520;2022-10-16T07:46:48;100446.00;;;21.98;62.90
28428;BME280;15662;49.128;8.520;2022-10-16T07:49:16;100442.22;;;22.01;62.96
28428;BME280;15662;49.128;8.520;2022-10-16T07:51:45;100451.50;;;22.09;62.95
28428;BME280;15662;49.128;8.520;2022-10-16T07:54:13;100458.31;;;22.15;62.95
28428;BME280;15662;49.128;8.520;2022-10-16T07:56:41;100457.97;;;22.20;62.75
28428;BME280;15662;49.128;8.520;2022-10-16T07:59:11;100460.22;;;22.26;62.68
28428;BME280;15662;49.128;8.520;2022-10-16T08:01:39;100471.66;;;22.29;62.71
28428;BME280;15662;49.128;8.520;2022-10-16T08:04:13;100474.16;;;22.32;62.60
28428;BME280;15662;49.128;8.520;2022-10-16T08:06:41;100469.50;;;22.34;62.70
28428;BME280;15662;49.128;8.520;2022-10-16T08:09:09;100462.78;;;22.40;62.60
28428;BME280;15662;49.128;8.520;2022-10-16T08:11:37;100445.31;;;22.33;62.64
28428;BME280;15662;49.128;8.520;2022-10-16T08:14:08;100441.63;;;22.34;62.42
28428;BME280;15662;49.128;8.520;2022-10-16T08:16:38;100447.75;;;22.36;62.30
28428;BME280;15662;49.128;8.520;2022-10-16T08:19:06;100458.75;;;22.46;62.57
28428;BME280;15662;49.128;8.520;2022-10-16T08:21:35;100440.84;;;22.45;62.20
28428;BME280;15662;49.128;8.520;2022-10-16T08:24:03;100461.63;;;22.55;62.22
28428;BME280;15662;49.128;8.520;2022-10-16T08:26:31;100465.09;;;22.57;62.02
28428;BME280;15662;49.128;8.520;2022-10-16T08:29:00;100454.53;;;22.54;62.01
28428;BME280;15662;49.128;8.520;2022-10-16T08:31:32;100472.00;;;22.61;61.89
28428;BME280;15662;49.128;8.520;2022-10-16T08:34:00;100476.31;;;22.64;61.83
28428;BME280;15662;49.128;8.520;2022-10-16T08:36:48;100487.88;;;22.66;61.72
28428;BME280;15662;49.128;8.520;2022-10-16T08:39:20;100493.91;;;22.70;62.01
28428;BME280;15662;49.128;8.520;2022-10-16T08:48:26;100502.94;;;22.81;61.86
28428;BME280;15662;49.128;8.520;2022-10-16T08:50:55;100496.78;;;22.79;62.00
28428;BME280;15662;49.128;8.520;2022-10-16T08:56:04;100510.81;;;22.84;61.77
28428;BME280;15662;49.128;8.520;2022-10-16T08:58:35;100501.72;;;22.85;61.79
28428;BME280;15662;49.128;8.520;2022-10-16T09:01:14;100522.59;;;22.96;61.70
28428;BME280;15662;49.128;8.520;2022-10-16T09:21:16;100554.28;;;23.18;61.14
28428;BME280;15662;49.128;8.520;2022-10-16T09:23:47;100560.66;;;23.17;61.21
28428;BME280;15662;49.128;8.520;2022-10-16T09:26:18;100556.75;;;23.21;61.37
28428;BME280;15662;49.128;8.520;2022-10-16T09:28:54;100559.22;;;23.24;61.25
28428;BME280;15662;49.128;8.520;2022-10-16T09:31:23;100562.34;;;23.31;61.10
28428;BME280;15662;49.128;8.520;2022-10-16T09:34:02;100566.41;;;23.36;60.83
28428;BME280;15662;49.128;8.520;2022-10-16T09:36:43;100582.16;;;23.42;60.89
28428;BME280;15662;49.128;8.520;2022-10-16T09:39:12;100577.50;;;23.44;60.98
28428;BME280;15662;49.128;8.520;2022-10-16T09:41:44;100583.81;;;23.56;60.82
28428;BME280;15662;49.128;8.520;2022-10-16T09:47:03;100592.63;;;23.71;60.12
28428;BME280;15662;49.128;8.520;2022-10-16T09:49:37;100579.09;;;23.71;60.49
28428;BME280;15662;49.128;8.520;2022-10-16T09:52:14;100580.34;;;23.78;60.40
28428;BME280;15662;49.128;8.520;2022-10-16T09:54:52;100594.03;;;23.88;59.94
28428;BME280;15662;49.128;8.520;2022-10-16T09:57:34;100576.19;;;23.85;60.27
28428;BME280;15662;49.128;8.520;2022-10-16T10:00:23;100584.56;;;23.93;59.86
28428;BME280;15662;49.128;8.520;2022-10-16T10:02:55;100583.13;;;24.01;59.73
28428;BME280;15662;49.128;8.520;2022-10-16T10:05:33;100587.69;;;24.11;59.67
28428;BME280;15662;49.128;8.520;2022-10-16T10:08:21;100586.59;;;24.14;59.96
28428;BME280;15662;49.128;8.520;2022-10-16T10:10:52;100593.84;;;24.25;59.37
28428;BME280;15662;49.128;8.520;2022-10-16T10:13:25;100581.66;;;24.19;59.21
28428;BME280;15662;49.128;8.520;2022-10-16T10:15:54;100599.63;;;24.31;59.17
28428;BME280;15662;49.128;8.520;2022-10-16T10:18:59;100581.66;;;24.30;58.58
28428;BME280;15662;49.128;8.520;2022-10-16T10:21:27;100595.59;;;24.37;58.79
28428;BME280;15662;49.128;8.520;2022-10-16T10:23:55;100589.09;;;24.39;58.71
28428;BME280;15662;49.128;8.520;2022-10-16T10:26:28;100580.13;;;24.39;58.24
28428;BME280;15662;49.128;8.520;2022-10-16T10:29:42;100582.06;;;24.48;58.16
28428;BME280;15662;49.128;8.520;2022-10-16T10:32:46;100571.34;;;24.47;58.05
28428;BME280;15662;49.128;8.520;2022-10-16T10:35:43;100574.56;;;24.52;58.00
28428;BME280;15662;49.128;8.520;2022-10-16T10:38:43;100579.88;;;24.53;57.62
28428;BME280;15662;49.128;8.520;2022-10-16T10:49:54;100579.59;;;24.56;57.49
28428;BME280;15662;49.128;8.520;2022-10-16T10:55:37;100570.84;;;24.53;57.09
28428;BME280;15662;49.128;8.520;2022-10-16T11:01:13;100583.66;;;24.51;57.20
28428;BME280;15662;49.128;8.520;2022-10-16T11:04:11;100585.63;;;24.60;57.29
28428;BME280;15662;49.128;8.520;2022-10-16T11:06:57;100592.78;;;24.61;57.15
28428;BME280;15662;49.128;8.520;2022-10-16T11:09:48;100587.13;;;24.64;57.04
28428;BME280;15662;49.128;8.520;2022-10-16T11:12:36;100581.69;;;24.64;57.03
28428;BME280;15662;49.128;8.520;2022-10-16T11:15:30;100585.13;;;24.66;56.64
28428;BME280;15662;49.128;8.520;2022-10-16T11:21:21;100565.91;;;24.58;56.88
28428;BME280;15662;49.128;8.520;2022-10-16T11:24:09;100575.78;;;24.70;56.56
28428;BME280;15662;49.128;8.520;2022-10-16T11:26:41;100577.25;;;24.74;56.63
28428;BME280;15662;49.128;8.520;2022-10-16T11:29:22;100591.78;;;24.84;56.38
28428;BME280;15662;49.128;8.520;2022-10-16T11:31:59;100586.09;;;24.87;56.62
28428;BME280;15662;49.128;8.520;2022-10-16T11:34:42;100599.97;;;25.05;56.43
28428;BME280;15662;49.128;8.520;2022-10-16T11:37:20;100573.09;;;25.02;56.58
28428;BME280;15662;49.128;8.520;2022-10-16T11:39:54;100575.72;;;25.15;56.45
28428;BME280;15662;49.128;8.520;2022-10-16T11:42:37;100571.38;;;25.24;56.14
28428;BME280;15662;49.128;8.520;2022-10-16T11:45:12;100569.75;;;25.32;56.24
28428;BME280;15662;49.128;8.520;2022-10-16T11:47:50;100564.66;;;25.39;55.91
28428;BME280;15662;49.128;8.520;2022-10-16T11:53:56;100583.94;;;25.57;55.66
28428;BME280;15662;49.128;8.520;2022-10-16T11:56:27;100579.94;;;25.61;55.82
28428;BME280;15662;49.128;8.520;2022-10-16T11:59:00;100582.63;;;25.72;55.80
28428;BME280;15662;49.128;8.520;2022-10-16T12:01:57;100566.94;;;25.76;55.28
28428;BME280;15662;49.128;8.520;2022-10-16T12:04:50;100566.28;;;25.83;55.08
28428;BME280;15662;49.128;8.520;2022-10-16T12:07:37;100566.50;;;25.91;54.72
28428;BME280;15662;49.128;8.520;2022-10-16T12:10:26;100574.81;;;25.99;54.52
28428;BME280;15662;49.128;8.520;2022-10-16T12:12:54;100558.06;;;25.94;54.39
28428;BME280;15662;49.128;8.520;2022-10-16T12:15:31;100565.88;;;26.09;53.75
28428;BME280;15662;49.128;8.520;2022-10-16T12:18:24;100562.03;;;26.11;53.49
28428;BME280;15662;49.128;8.520;2022-10-16T12:20:57;100567.53;;;26.21;53.52
28428;BME280;15662;49.128;8.520;2022-10-16T12:23:27;100568.94;;;26.25;53.09
28428;BME280;15662;49.128;8.520;2022-10-16T12:25:58;100562.16;;;26.31;52.80
28428;BME280;15662;49.128;8.520;2022-10-16T12:28:28;100563.47;;;26.15;53.67
28428;BME280;15662;49.128;8.520;2022-10-16T12:31:04;100555.25;;;26.27;53.07
28428;BME280;15662;49.128;8.520;2022-10-16T12:33:36;100553.25;;;26.29;52.60
28428;BME280;15662;49.128;8.520;2022-10-16T12:36:27;100561.94;;;26.43;51.79
28428;BME280;15662;49.128;8.520;2022-10-16T12:39:00;100551.31;;;26.40;52.00
28428;BME280;15662;49.128;8.520;2022-10-16T12:41:34;100555.06;;;26.49;51.16
28428;BME280;15662;49.128;8.520;2022-10-16T12:44:32;100549.38;;;26.52;51.13
28428;BME280;15662;49.128;8.520;2022-10-16T12:47:02;100556.38;;;26.55;51.31
28428;BME280;15662;49.128;8.520;2022-10-16T12:49:36;100554.00;;;26.61;51.10
28428;BME280;15662;49.128;8.520;2022-10-16T12:52:34;100553.69;;;26.64;51.17
28428;BME280;15662;49.128;8.520;2022-10-16T12:55:05;100567.28;;;26.64;51.20
28428;BME280;15662;49.128;8.520;2022-10-16T12:58:00;100561.44;;;26.69;50.97
28428;BME280;15662;49.128;8.520;2022-10-16T13:03:48;100556.72;;;26.61;51.07
28428;BME280;15662;49.128;8.520;2022-10-16T13:06:49;100559.28;;;26.63;50.90
28428;BME280;15662;49.128;8.520;2022-10-16T13:09:39;100558.69;;;26.59;50.75
28428;BME280;15662;49.128;8.520;2022-10-16T13:12:45;100565.13;;;26.58;50.50
28428;BME280;15662;49.128;8.520;2022-10-16T13:18:16;100571.53;;;26.47;50.57
28428;BME280;15662;49.128;8.520;2022-10-16T13:30:22;100569.09;;;26.23;50.71
28428;BME280;15662;49.128;8.520;2022-10-16T13:35:56;100570.66;;;26.16;51.01
28428;BME280;15662;49.128;8.520;2022-10-16T13:38:32;100559.78;;;26.16;50.98
28428;BME280;15662;49.128;8.520;2022-10-16T13:41:16;100565.06;;;26.18;51.12
28428;BME280;15662;49.128;8.520;2022-10-16T13:43:51;100564.34;;;26.16;51.13
28428;BME280;15662;49.128;8.520;2022-10-16T13:46:24;100562.91;;;26.12;51.12
28428;BME280;15662;49.128;8.520;2022-10-16T13:49:15;100551.44;;;26.08;51.11
28428;BME280;15662;49.128;8.520;2022-10-16T13:51:59;100556.00;;;26.08;50.94
28428;BME280;15662;49.128;8.520;2022-10-16T13:54:28;100555.56;;;26.03;51.11
28428;BME280;15662;49.128;8.520;2022-10-16T13:57:05;100547.41;;;26.03;51.24
28428;BME280;15662;49.128;8.520;2022-10-16T13:59:54;100548.22;;;25.93;51.09
28428;BME280;15662;49.128;8.520;2022-10-16T14:02:36;100557.53;;;26.01;50.75
28428;BME280;15662;49.128;8.520;2022-10-16T14:05:09;100568.69;;;25.97;51.01
28428;BME280;15662;49.128;8.520;2022-10-16T14:07:38;100566.38;;;25.93;51.34
28428;BME280;15662;49.128;8.520;2022-10-16T14:10:30;100566.50;;;25.91;51.41
28428;BME280;15662;49.128;8.520;2022-10-16T14:13:05;100565.03;;;25.87;51.53
28428;BME280;15662;49.128;8.520;2022-10-16T14:15:35;100564.28;;;25.85;51.29
28428;BME280;15662;49.128;8.520;2022-10-16T14:18:05;100571.97;;;25.80;51.54
28428;BME280;15662;49.128;8.520;2022-10-16T14:20:34;100572.13;;;25.79;51.50
28428;BME280;15662;49.128;8.520;2022-10-16T14:23:23;100565.97;;;25.77;51.09
28428;BME280;15662;49.128;8.520;2022-10-16T14:25:52;100569.06;;;25.72;51.88
28428;BME280;15662;49.128;8.520;2022-10-16T14:28:22;100562.63;;;25.73;51.85
28428;BME280;15662;49.128;8.520;2022-10-16T14:30:59;100572.75;;;25.71;51.90
28428;BME280;15662;49.128;8.520;2022-10-16T14:33:32;100573.03;;;25.68;52.15
28428;BME280;15662;49.128;8.520;2022-10-16T14:36:26;100575.97;;;25.65;51.96
28428;BME280;15662;49.128;8.520;2022-10-16T14:39:06;100549.13;;;25.62;52.16
28428;BME280;15662;49.128;8.520;2022-10-16T14:41:49;100564.53;;;25.61;52.44
28428;BME280;15662;49.128;8.520;2022-10-16T14:44:19;100557.78;;;25.56;52.58
28428;BME280;15662;49.128;8.520;2022-10-16T14:46:51;100562.94;;;25.59;52.42
28428;BME280;15662;49.128;8.520;2022-10-16T14:49:20;100563.66;;;25.61;52.77
28428;BME280;15662;49.128;8.520;2022-10-16T14:51:50;100570.69;;;25.63;52.65
28428;BME280;15662;49.128;8.520;2022-10-16T14:54:19;100568.31;;;25.70;52.57
28428;BME280;15662;49.128;8.520;2022-10-16T14:56:56;100560.06;;;25.71;52.34
28428;BME280;15662;49.128;8.520;2022-10-16T14:59:36;100567.06;;;25.74;52.30
28428;BME280;15662;49.128;8.520;2022-10-16T15:02:30;100568.69;;;25.77;52.51
28428;BME280;15662;49.128;8.520;2022-10-16T15:07:51;100573.22;;;25.76;52.33
28428;BME280;15662;49.128;8.520;2022-10-16T15:10:25;100565.34;;;25.73;52.19